KDDH

William H Morse State Airport

Bennington, Vermont, USA
METAR KDDH 161546Z AUTO 01005KT 2 1/2SM -SN SCT010 BKN023 OVC029 M01/M04 A2964 RMK AO2 P0001 T10111039
Observed Flight Rules
Nov-16 @ 15:46 UTC (19 minutes ago) Instrument Flight Rules
Wind Visibility Clouds Conditions
10° at 5 knots 2 1/2 miles
  • Scattered at 1,000' AGL
  • Broken at 2,300' AGL
  • Overcast at 2,900' AGL
  • Light Snow
Temperatures Readings Precipitation
Current -1°C / 30°F
Dewpoint -4°C / 25°F
Humidity 80%
Altimeter 29.64" Hg
Pressure 1004 hPa
Elevation 244
Current Rain 0.01
METAR KDDH 161546Z AUTO 01005KT 2 1/2SM -SN SCT010 BKN023 OVC029 M01/M04 A2964 RMK AO2 P0001 T10111039
Observed Flight Rules
Nov-16 @ 15:46 UTC
(19 minutes ago)
IFR
Wind Visibility
10° at 5 knots 2 1/2 miles
Clouds
  • Scattered at 1,000' AGL
  • Broken at 2,300' AGL
  • Overcast at 2,900' AGL
Conditions
  • Light Snow
Temperature Dewpoint
-1°C / 30°F -4°C / 25°F
Humidity Altimeter Pressure
80% 29.64" Hg 1004 hPa
Current Rain
0.01